Time;durP1;ratioP1;P1;durP2;ratioP2;P2;SDS_P1;SDS_P2;PMS_P1;PMS_P2;Temp;Humidity;BMP_temperature;BMP_pressure;BME280_temperature;BME280_humidity;BME280_pressure;Samples;Min_cycle;Max_cycle;Signal;HPM_P1;HPM_P2
2024/03/06 00:00:41;;;;;;;10.93;4.37;;;;;;;8.40;96.60;101175.03;5089244;28;20055;-73
2024/03/06 00:03:08;;;;;;;10.20;3.58;;;;;;;8.45;96.56;101169.47;5089266;28;20052;-74
2024/03/06 00:05:35;;;;;;;10.70;3.80;;;;;;;8.54;96.10;101175.97;5079793;28;20064;-74
2024/03/06 00:08:03;;;;;;;8.23;4.07;;;;;;;8.63;95.64;101181.66;5069279;28;20044;-74
2024/03/06 00:10:31;;;;;;;7.43;3.60;;;;;;;8.82;94.60;101183.38;5051639;28;20060;-73
2024/03/06 00:12:59;;;;;;;10.35;3.97;;;;;;;8.64;94.42;101181.38;5078011;28;20048;-75
2024/03/06 00:15:27;;;;;;;8.73;3.80;;;;;;;8.44;95.44;101186.25;5090282;28;20491;-73
2024/03/06 00:17:54;;;;;;;6.78;3.65;;;;;;;8.51;95.75;101197.69;5088406;28;20586;-74
2024/03/06 00:20:22;;;;;;;9.23;4.25;;;;;;;8.45;95.71;101202.41;5089704;28;20063;-73
2024/03/06 00:22:52;;;;;;;8.30;4.10;;;;;;;8.25;96.07;101197.06;5056495;28;20048;-73
2024/03/06 00:25:20;;;;;;;9.82;4.22;;;;;;;8.53;95.75;101201.78;5070248;28;20048;-74
2024/03/06 00:27:48;;;;;;;8.38;4.00;;;;;;;8.30;96.04;101199.78;5058000;28;20776;-72
2024/03/06 00:30:15;;;;;;;8.50;4.13;;;;;;;8.35;95.99;101196.19;5068706;28;20057;-73
2024/03/06 00:32:42;;;;;;;9.07;4.53;;;;;;;8.44;96.05;101203.50;5051240;28;20071;-72
2024/03/06 00:35:11;;;;;;;7.07;3.88;;;;;;;8.45;95.90;101209.81;5077478;28;20056;-72
2024/03/06 00:37:39;;;;;;;8.43;4.38;;;;;;;8.34;96.11;101209.09;5067248;28;20079;-73
2024/03/06 00:40:07;;;;;;;9.77;4.00;;;;;;;8.08;97.39;101199.38;5049529;28;20059;-73
2024/03/06 00:42:35;;;;;;;8.52;4.45;;;;;;;8.45;96.38;101213.41;5086490;28;20578;-73
2024/03/06 00:45:03;;;;;;;8.07;4.45;;;;;;;8.49;95.63;101213.66;5086677;28;20043;-72
2024/03/06 00:47:30;;;;;;;8.98;4.55;;;;;;;8.49;94.40;101216.38;5069314;28;20067;-73
2024/03/06 00:49:57;;;;;;;10.82;4.40;;;;;;;8.49;94.42;101205.41;5069292;28;20060;-72
2024/03/06 00:52:25;;;;;;;10.07;4.40;;;;;;;8.34;94.31;101205.50;5085884;28;20463;-72
2024/03/06 00:54:52;;;;;;;8.35;4.45;;;;;;;8.51;94.78;101208.66;5087906;28;20056;-73
2024/03/06 00:57:19;;;;;;;9.43;4.45;;;;;;;8.46;94.94;101209.53;5077735;28;20056;-74
2024/03/06 00:59:47;;;;;;;8.98;4.32;;;;;;;8.31;95.78;101219.81;5088090;28;20047;-72
2024/03/06 01:02:14;;;;;;;7.93;4.25;;;;;;;8.40;95.57;101218.94;5087352;28;20048;-72
2024/03/06 01:04:41;;;;;;;7.15;3.90;;;;;;;8.31;95.02;101214.31;5087293;28;20056;-72
2024/03/06 01:07:09;;;;;;;9.73;4.55;;;;;;;8.31;94.97;101217.91;5087832;28;20602;-73
2024/03/06 01:09:36;;;;;;;6.78;4.18;;;;;;;8.32;95.61;101225.00;5068145;28;20730;-73
2024/03/06 01:12:03;;;;;;;8.73;4.10;;;;;;;8.18;95.51;101217.69;5070457;28;20737;-72
2024/03/06 01:14:31;;;;;;;7.60;4.25;;;;;;;8.21;96.26;101222.63;5065266;28;20060;-73
2024/03/06 01:16:59;;;;;;;7.68;4.80;;;;;;;8.02;97.10;101216.97;5067440;28;20048;-73
2024/03/06 01:19:26;;;;;;;7.28;4.50;;;;;;;8.14;97.37;101220.19;5082130;28;20495;-73
2024/03/06 01:21:54;;;;;;;7.57;4.50;;;;;;;8.29;97.42;101222.84;5066452;28;20053;-73
2024/03/06 01:24:21;;;;;;;8.05;4.75;;;;;;;8.25;96.75;101221.78;5068150;28;20087;-73
2024/03/06 01:26:48;;;;;;;9.48;5.22;;;;;;;8.00;97.98;101225.47;5051780;28;20060;-73
2024/03/06 01:29:17;;;;;;;9.00;4.88;;;;;;;8.26;98.01;101226.19;5069644;28;20075;-73
2024/03/06 01:31:46;;;;;;;10.13;4.78;;;;;;;8.31;97.17;101230.78;5074769;28;20052;-73
2024/03/06 01:34:15;;;;;;;10.23;5.55;;;;;;;8.17;96.79;101227.84;5052967;28;20059;-72
2024/03/06 01:36:42;;;;;;;12.73;5.85;;;;;;;8.38;96.97;101221.16;5087726;28;20063;-72
2024/03/06 01:39:10;;;;;;;10.68;5.68;;;;;;;8.08;97.23;101231.47;5086711;28;20048;-73
2024/03/06 01:41:37;;;;;;;9.90;6.03;;;;;;;8.20;97.54;101227.28;5088137;28;20702;-73
2024/03/06 01:44:04;;;;;;;10.07;5.47;;;;;;;8.19;96.68;101222.91;5087683;28;20044;-73
2024/03/06 01:46:32;;;;;;;10.23;5.82;;;;;;;8.50;96.02;101221.59;5052851;28;20594;-72
2024/03/06 01:49:01;;;;;;;11.43;5.70;;;;;;;8.45;95.58;101224.38;5085137;28;20048;-72
2024/03/06 01:51:32;;;;;;;12.35;6.47;;;;;;;8.37;97.12;101226.94;5085756;28;20071;-73
2024/03/06 01:54:01;;;;;;;10.23;6.40;;;;;;;8.21;97.20;101226.16;5055345;28;20056;-73
2024/03/06 01:56:29;;;;;;;10.17;5.90;;;;;;;7.99;99.49;101221.09;5065778;28;20071;-73
2024/03/06 01:58:56;;;;;;;11.05;6.28;;;;;;;7.84;100.00;101221.22;5080734;28;20060;-73
2024/03/06 02:01:25;;;;;;;13.73;7.03;;;;;;;7.79;100.00;101223.94;5070728;28;20056;-73
2024/03/06 02:03:52;;;;;;;9.35;6.45;;;;;;;7.70;100.00;101222.09;5069832;28;20055;-73
2024/03/06 02:06:21;;;;;;;11.50;7.88;;;;;;;7.54;100.00;101221.34;5053334;28;20745;-72
2024/03/06 02:08:49;;;;;;;13.43;9.05;;;;;;;7.09;100.00;101223.44;5085918;28;20074;-73
2024/03/06 02:11:16;;;;;;;12.60;9.60;;;;;;;7.18;100.00;101227.25;5087873;28;20048;-73
2024/03/06 02:13:44;;;;;;;14.02;10.18;;;;;;;7.02;100.00;101225.63;5087503;28;20258;-72
2024/03/06 02:16:11;;;;;;;18.42;11.50;;;;;;;6.69;100.00;101229.81;5069982;28;20047;-71
2024/03/06 02:18:51;;;;;;;16.23;12.27;;;;;;;6.88;100.00;101224.56;5069158;28;20052;-72
2024/03/06 02:21:23;;;;;;;23.00;15.38;;;;;;;6.73;100.00;101230.88;5086026;28;20056;-74
2024/03/06 02:23:54;;;;;;;20.75;14.90;;;;;;;6.79;100.00;101235.28;5087331;28;20040;-73
2024/03/06 02:26:21;;;;;;;24.40;15.68;;;;;;;6.76;100.00;101230.34;5095502;28;20062;-72
2024/03/06 02:28:54;;;;;;;23.00;15.82;;;;;;;6.69;100.00;101235.28;5106330;28;20058;-73
2024/03/06 02:31:22;;;;;;;22.13;15.07;;;;;;;6.82;100.00;101232.78;5082348;28;20064;-72
2024/03/06 02:33:53;;;;;;;22.25;15.95;;;;;;;6.76;100.00;101233.88;5066972;28;20690;-72
2024/03/06 02:36:21;;;;;;;23.67;15.25;;;;;;;6.82;100.00;101235.53;5065906;28;20060;-72
2024/03/06 02:38:49;;;;;;;21.55;15.68;;;;;;;6.92;100.00;101233.88;5067196;28;20052;-73
2024/03/06 02:41:17;;;;;;;22.48;14.98;;;;;;;7.00;100.00;101238.78;5082313;28;20056;-73
2024/03/06 02:43:44;;;;;;;21.38;15.60;;;;;;;6.84;100.00;101236.09;5065299;28;20045;-73
2024/03/06 02:46:12;;;;;;;22.23;14.70;;;;;;;6.70;100.00;101229.53;5082547;28;20051;-72
2024/03/06 02:48:39;;;;;;;22.23;15.27;;;;;;;6.65;100.00;101229.53;5068685;28;20056;-73
2024/03/06 02:51:07;;;;;;;22.35;15.25;;;;;;;7.05;100.00;101236.88;5069042;28;20066;-72
2024/03/06 02:53:35;;;;;;;22.52;14.55;;;;;;;6.93;100.00;101230.88;5086500;28;20055;-73
2024/03/06 02:56:02;;;;;;;22.20;15.35;;;;;;;6.77;100.00;101232.81;5103104;28;20051;-72
2024/03/06 02:58:31;;;;;;;20.85;14.98;;;;;;;6.97;100.00;101231.97;5089200;28;20134;-75
2024/03/06 03:00:59;;;;;;;21.23;16.03;;;;;;;6.99;100.00;101231.69;5090507;28;20044;-72
2024/03/06 03:03:26;;;;;;;21.70;15.63;;;;;;;6.97;100.00;101233.88;5092235;28;20243;-72
2024/03/06 03:05:53;;;;;;;23.33;16.45;;;;;;;7.09;100.00;101237.97;5091517;28;20052;-72
2024/03/06 03:08:21;;;;;;;25.08;17.75;;;;;;;6.98;100.00;101239.06;5090593;28;20059;-73
2024/03/06 03:10:48;;;;;;;23.27;16.90;;;;;;;6.73;100.00;101236.34;5090708;28;20059;-72
2024/03/06 03:13:15;;;;;;;26.42;18.25;;;;;;;6.68;100.00;101239.09;5091757;28;20040;-73
2024/03/06 03:15:43;;;;;;;24.10;17.27;;;;;;;6.67;100.00;101238.31;5091001;28;20517;-73
2024/03/06 03:18:10;;;;;;;22.33;15.98;;;;;;;6.74;100.00;101243.50;5091237;28;20062;-72
2024/03/06 03:20:38;;;;;;;25.27;16.40;;;;;;;6.37;100.00;101245.69;5088634;28;20047;-74
2024/03/06 03:23:11;;;;;;;25.70;17.30;;;;;;;6.21;100.00;101244.84;5089859;28;20407;-73
2024/03/06 03:25:39;;;;;;;25.42;18.05;;;;;;;6.50;100.00;101253.34;5073425;28;20055;-73
2024/03/06 03:28:07;;;;;;;25.48;17.30;;;;;;;6.43;100.00;101247.34;5073514;28;20066;-73
2024/03/06 03:30:34;;;;;;;24.15;17.20;;;;;;;6.46;100.00;101249.50;5090398;28;20055;-73
2024/03/06 03:33:02;;;;;;;28.67;18.83;;;;;;;6.42;100.00;101251.97;5089156;28;20058;-73
2024/03/06 03:35:30;;;;;;;31.13;19.45;;;;;;;6.71;100.00;101244.84;5069646;28;20067;-74
2024/03/06 03:37:58;;;;;;;30.40;19.98;;;;;;;6.67;100.00;101249.25;5089224;28;20056;-72
2024/03/06 03:40:25;;;;;;;25.55;18.88;;;;;;;7.04;100.00;101253.56;5089915;28;20060;-73
2024/03/06 03:42:52;;;;;;;32.00;20.15;;;;;;;6.81;100.00;101252.25;5087697;28;20048;-72
2024/03/06 03:45:20;;;;;;;30.83;19.75;;;;;;;6.75;100.00;101248.69;5084151;28;20416;-73
2024/03/06 03:47:47;;;;;;;30.08;20.30;;;;;;;6.56;100.00;101258.56;5075589;28;20047;-73
2024/03/06 03:50:15;;;;;;;28.42;20.15;;;;;;;6.47;100.00;101260.19;5090443;28;20056;-73
2024/03/06 03:52:44;;;;;;;32.83;20.90;;;;;;;6.45;100.00;101258.84;5088683;28;20087;-72
2024/03/06 03:55:11;;;;;;;30.42;20.48;;;;;;;6.33;100.00;101261.00;5088811;28;20071;-72
2024/03/06 03:57:39;;;;;;;33.88;21.25;;;;;;;6.50;100.00;101254.16;5071382;28;20740;-73
2024/03/06 04:00:10;;;;;;;34.17;22.30;;;;;;;6.59;100.00;101252.53;5088443;28;20467;-73
2024/03/06 04:02:39;;;;;;;36.72;20.88;;;;;;;6.60;100.00;101264.28;5088986;28;20118;-73
2024/03/06 04:05:07;;;;;;;31.08;20.05;;;;;;;6.19;100.00;101262.63;5050655;28;20392;-73
2024/03/06 04:07:35;;;;;;;36.75;20.33;;;;;;;6.36;100.00;101265.94;5088005;28;20052;-73
2024/03/06 04:10:03;;;;;;;29.98;20.13;;;;;;;6.13;100.00;101256.31;5067916;28;20415;-73
2024/03/06 04:12:31;;;;;;;29.15;19.52;;;;;;;6.01;100.00;101271.34;5070347;28;20052;-72
2024/03/06 04:14:58;;;;;;;31.83;19.65;;;;;;;6.42;100.00;101265.66;5068267;28;20064;-73
2024/03/06 04:17:25;;;;;;;29.35;19.83;;;;;;;6.61;100.00;101272.22;5055015;28;20056;-73
2024/03/06 04:19:53;;;;;;;27.27;17.60;;;;;;;6.92;100.00;101280.44;5089104;28;20067;-72
2024/03/06 04:22:20;;;;;;;26.17;17.50;;;;;;;6.65;100.00;101278.81;5089229;28;20059;-72
2024/03/06 04:24:47;;;;;;;25.63;17.55;;;;;;;6.97;100.00;101281.25;5070920;28;20483;-74
2024/03/06 04:27:16;;;;;;;25.80;17.00;;;;;;;6.68;100.00;101293.84;5088677;28;20060;-72
2024/03/06 04:29:44;;;;;;;29.15;17.52;;;;;;;6.67;100.00;101286.75;5070844;28;20409;-73
2024/03/06 04:32:11;;;;;;;27.45;18.55;;;;;;;6.97;100.00;101289.47;5087704;28;20051;-73
2024/03/06 04:34:38;;;;;;;25.67;17.65;;;;;;;6.72;100.00;101297.69;5087498;28;20055;-72
2024/03/06 04:37:06;;;;;;;27.05;17.80;;;;;;;6.63;100.00;101294.69;5090928;28;20044;-73
2024/03/06 04:39:33;;;;;;;29.77;19.75;;;;;;;6.49;100.00;101296.31;5075057;28;20071;-74
2024/03/06 04:42:00;;;;;;;28.85;19.77;;;;;;;6.61;100.00;101294.13;5084680;28;20040;-73
2024/03/06 04:44:28;;;;;;;31.85;20.10;;;;;;;6.42;100.00;101293.00;5054908;28;20049;-73
2024/03/06 04:46:56;;;;;;;27.90;18.33;;;;;;;6.90;100.00;101297.16;5084842;28;20047;-72
2024/03/06 04:49:23;;;;;;;29.23;18.13;;;;;;;6.77;100.00;101297.69;5061763;28;20051;-71
2024/03/06 04:51:53;;;;;;;28.95;18.00;;;;;;;6.39;100.00;101292.75;5109511;28;20676;-73
2024/03/06 04:54:20;;;;;;;28.85;17.52;;;;;;;6.52;100.00;101303.16;5099499;28;20052;-73
2024/03/06 04:56:47;;;;;;;32.05;19.40;;;;;;;6.75;100.00;101306.19;5090796;28;20534;-73
2024/03/06 04:59:15;;;;;;;24.75;16.15;;;;;;;6.58;100.00;101308.38;5081672;28;20048;-73
2024/03/06 05:01:44;;;;;;;28.73;17.83;;;;;;;6.75;100.00;101310.81;5086878;28;20067;-73
2024/03/06 05:04:11;;;;;;;25.90;17.63;;;;;;;6.56;100.00;101307.81;5098047;28;20052;-72
2024/03/06 05:06:56;;;;;;;24.95;16.98;;;;;;;6.80;100.00;101308.06;5087276;28;20051;-72
2024/03/06 05:09:41;;;;;;;25.25;17.58;;;;;;;6.70;100.00;101305.34;5058660;28;20043;-72
2024/03/06 05:12:27;;;;;;;25.63;17.20;;;;;;;7.11;100.00;101312.47;5087209;28;20040;-72
2024/03/06 05:15:12;;;;;;;28.45;18.17;;;;;;;7.11;100.00;101314.38;5088561;28;20036;-73
2024/03/06 05:17:57;;;;;;;27.02;18.75;;;;;;;6.63;100.00;101319.31;5087409;28;20052;-73
2024/03/06 05:20:43;;;;;;;30.52;18.13;;;;;;;6.64;100.00;101317.41;5086221;28;20058;-74
2024/03/06 05:23:28;;;;;;;27.02;17.80;;;;;;;6.76;100.00;101329.72;5088340;28;20047;-73
2024/03/06 05:26:12;;;;;;;25.42;16.00;;;;;;;6.65;100.00;101340.94;5055720;28;20055;-75
2024/03/06 05:28:57;;;;;;;26.95;17.80;;;;;;;6.63;100.00;101338.47;5089448;28;20059;-74
2024/03/06 05:31:42;;;;;;;24.55;17.33;;;;;;;6.62;100.00;101344.22;5059962;28;20048;-73
2024/03/06 05:34:27;;;;;;;26.05;17.38;;;;;;;6.54;100.00;101361.16;5057796;28;20044;-73
2024/03/06 05:37:12;;;;;;;25.45;17.70;;;;;;;6.63;100.00;101345.84;5074046;28;20055;-73
2024/03/06 05:39:57;;;;;;;26.98;18.08;;;;;;;6.83;100.00;101354.91;5069350;28;20051;-74
2024/03/06 05:42:42;;;;;;;24.88;16.83;;;;;;;6.76;100.00;101359.81;5088121;28;20047;-72
2024/03/06 05:45:27;;;;;;;30.25;19.42;;;;;;;6.16;100.00;101372.56;5073887;28;20455;-73
2024/03/06 05:48:12;;;;;;;29.33;20.00;;;;;;;6.10;100.00;101366.25;5088555;28;20434;-72
2024/03/06 05:50:57;;;;;;;31.45;20.80;;;;;;;6.22;100.00;101366.84;5089139;28;20060;-72
2024/03/06 05:53:43;;;;;;;29.85;19.83;;;;;;;6.26;100.00;101370.69;5089197;28;20741;-73
2024/03/06 05:56:28;;;;;;;30.45;20.58;;;;;;;6.43;100.00;101373.19;5086523;28;20059;-74
2024/03/06 05:59:13;;;;;;;30.83;20.38;;;;;;;6.41;100.00;101376.22;5085310;28;20039;-72
2024/03/06 06:01:41;;;;;;;27.42;18.45;;;;;;;6.34;100.00;101381.13;5086854;28;20044;-73
2024/03/06 06:04:11;;;;;;;31.27;20.13;;;;;;;6.46;100.00;101383.59;5073048;28;20059;-77
2024/03/06 06:06:39;;;;;;;29.60;21.35;;;;;;;6.65;100.00;101382.00;5106288;28;20052;-72
2024/03/06 06:09:06;;;;;;;29.90;20.70;;;;;;;6.62;100.00;101386.13;5087149;28;20109;-72
2024/03/06 06:11:33;;;;;;;30.42;19.92;;;;;;;6.93;100.00;101375.16;5070461;28;20047;-73
2024/03/06 06:14:01;;;;;;;27.75;19.85;;;;;;;6.76;100.00;101389.13;5108662;28;20056;-73
2024/03/06 06:16:38;;;;;;;28.45;19.58;;;;;;;6.74;100.00;101386.69;5072870;28;20513;-72
2024/03/06 06:19:06;;;;;;;31.00;20.67;;;;;;;6.68;100.00;101401.44;5089102;28;20550;-73
2024/03/06 06:21:35;;;;;;;27.45;18.85;;;;;;;6.63;100.00;101400.59;5085917;28;20056;-72
2024/03/06 06:24:03;;;;;;;29.83;20.15;;;;;;;6.65;100.00;101395.69;5069922;28;20040;-74
2024/03/06 06:26:32;;;;;;;29.38;20.23;;;;;;;6.76;100.00;101400.09;5088209;28;20055;-73
2024/03/06 06:29:00;;;;;;;28.38;20.52;;;;;;;6.70;100.00;101402.00;5088571;28;20052;-73
2024/03/06 06:31:27;;;;;;;29.88;19.88;;;;;;;6.85;100.00;101412.94;5070097;28;20048;-73
2024/03/06 06:33:55;;;;;;;30.13;19.30;;;;;;;7.20;100.00;101408.63;5085589;28;20048;-72
2024/03/06 06:36:22;;;;;;;27.85;18.25;;;;;;;7.03;100.00;101406.13;5070282;28;20776;-72
2024/03/06 06:38:50;;;;;;;28.33;19.30;;;;;;;6.99;100.00;101407.75;5072974;28;20052;-73
2024/03/06 06:41:17;;;;;;;27.00;18.73;;;;;;;7.39;100.00;101412.44;5081872;28;20060;-74
2024/03/06 06:43:45;;;;;;;27.27;18.50;;;;;;;7.11;100.00;101419.28;5089658;28;20435;-74
2024/03/06 06:46:12;;;;;;;30.38;18.77;;;;;;;7.31;100.00;101422.03;5089450;28;20074;-73
2024/03/06 06:48:40;;;;;;;26.55;17.83;;;;;;;7.12;100.00;101425.56;5093107;28;20067;-73
2024/03/06 06:51:07;;;;;;;26.75;18.20;;;;;;;7.05;100.00;101435.97;5075008;28;20087;-73
2024/03/06 06:53:35;;;;;;;29.67;18.90;;;;;;;7.09;100.00;101431.59;5092430;28;20052;-73
2024/03/06 06:56:03;;;;;;;28.73;18.63;;;;;;;6.61;100.00;101443.84;5091811;28;20624;-73
2024/03/06 06:58:31;;;;;;;31.02;18.40;;;;;;;6.42;100.00;101450.88;5096130;28;20149;-73
2024/03/06 07:00:58;;;;;;;29.95;18.92;;;;;;;6.54;100.00;101440.53;5090032;28;20058;-73
2024/03/06 07:03:29;;;;;;;33.15;18.98;;;;;;;6.79;100.00;101448.81;5089902;28;20052;-73
2024/03/06 07:05:57;;;;;;;27.98;18.30;;;;;;;6.67;100.00;101446.34;5106442;28;20044;-73
2024/03/06 07:08:24;;;;;;;29.63;18.83;;;;;;;6.94;100.00;101450.78;5086759;28;20071;-74
2024/03/06 07:10:55;;;;;;;29.05;18.77;;;;;;;7.04;100.00;101448.03;5092531;28;20095;-75
2024/03/06 07:13:22;;;;;;;29.25;17.85;;;;;;;7.08;100.00;101457.38;5074157;28;20062;-75
2024/03/06 07:15:49;;;;;;;27.40;18.02;;;;;;;6.92;100.00;101456.53;5091314;28;20055;-75
2024/03/06 07:18:17;;;;;;;25.75;17.05;;;;;;;6.91;100.00;101462.25;5091749;28;20048;-73
2024/03/06 07:20:45;;;;;;;22.48;16.13;;;;;;;6.76;100.00;101461.13;5092802;27;20072;-73
2024/03/06 07:23:13;;;;;;;23.08;16.35;;;;;;;6.47;100.00;101468.16;5092043;28;20048;-73
2024/03/06 07:25:40;;;;;;;22.20;15.70;;;;;;;6.49;100.00;101459.66;5073012;28;20060;-74
2024/03/06 07:28:07;;;;;;;27.70;16.25;;;;;;;6.68;100.00;101467.13;5089102;28;20059;-74
2024/03/06 07:30:34;;;;;;;26.55;15.80;;;;;;;6.56;100.00;101471.19;5082480;28;20075;-73
2024/03/06 07:33:02;;;;;;;30.13;17.30;;;;;;;6.82;100.00;101473.75;5069984;28;20060;-73
2024/03/06 07:35:29;;;;;;;29.05;17.20;;;;;;;6.70;100.00;101475.91;5070000;28;20048;-73
2024/03/06 07:37:57;;;;;;;28.75;17.70;;;;;;;6.87;100.00;101483.06;5085856;28;20514;-72
2024/03/06 07:40:26;;;;;;;28.60;16.42;;;;;;;6.89;100.00;101484.44;5088734;28;20055;-74
2024/03/06 07:42:53;;;;;;;25.42;16.13;;;;;;;6.90;100.00;101491.56;5089854;28;20051;-75
2024/03/06 07:45:21;;;;;;;22.75;15.73;;;;;;;6.87;100.00;101494.03;5088358;28;20055;-73
2024/03/06 07:47:48;;;;;;;23.45;16.30;;;;;;;6.62;100.00;101500.25;5053624;28;20048;-75
2024/03/06 07:50:19;;;;;;;27.85;16.48;;;;;;;6.76;100.00;101493.16;5087999;28;20060;-73
2024/03/06 07:52:50;;;;;;;23.30;15.68;;;;;;;6.92;100.00;101499.50;5089671;28;20048;-72
2024/03/06 07:55:21;;;;;;;21.10;15.55;;;;;;;6.83;100.00;101505.50;5089107;28;20044;-73
2024/03/06 07:57:49;;;;;;;23.92;16.17;;;;;;;6.75;100.00;101514.25;5064324;28;20062;-73
2024/03/06 08:00:19;;;;;;;23.52;15.75;;;;;;;6.77;100.00;101509.31;5062103;28;20056;-74
2024/03/06 08:02:50;;;;;;;24.05;15.77;;;;;;;7.18;100.00;101503.94;5098756;28;20066;-72
2024/03/06 08:05:18;;;;;;;20.23;14.63;;;;;;;6.99;100.00;101520.06;5071980;28;20047;-71
2024/03/06 08:07:46;;;;;;;21.92;15.38;;;;;;;7.02;100.00;101510.47;5092927;28;20043;-72
2024/03/06 08:10:14;;;;;;;23.90;14.13;;;;;;;7.45;100.00;101508.06;5097890;28;20054;-71
2024/03/06 08:12:41;;;;;;;23.60;15.38;;;;;;;7.84;100.00;101503.69;5089193;28;20048;-74
2024/03/06 08:15:13;;;;;;;20.05;13.52;;;;;;;8.47;100.00;101512.34;5070795;28;20060;-75
2024/03/06 08:17:44;;;;;;;20.73;12.90;;;;;;;8.63;95.92;101514.75;5085401;28;20349;-75
2024/03/06 08:20:12;;;;;;;17.48;11.85;;;;;;;7.78;97.14;101523.16;5090205;28;20052;-75
2024/03/06 08:22:41;;;;;;;18.92;12.98;;;;;;;7.58;98.86;101523.16;5094809;28;20490;-76
2024/03/06 08:25:10;;;;;;;18.83;13.05;;;;;;;7.60;99.68;101526.47;5075517;28;20055;-75
2024/03/06 08:27:39;;;;;;;16.48;11.75;;;;;;;7.61;100.00;101528.94;5069497;28;20068;-75
2024/03/06 08:30:08;;;;;;;17.75;10.52;;;;;;;8.12;98.50;101537.94;5103803;28;20059;-70
2024/03/06 08:32:37;;;;;;;17.30;10.30;;;;;;;8.16;96.00;101535.47;5096981;28;20504;-74
2024/03/06 08:35:12;;;;;;;26.13;10.98;;;;;;;7.98;96.54;101536.84;5095701;28;20040;-77
2024/03/06 08:37:44;;;;;;;21.42;11.20;;;;;;;8.11;96.42;101532.72;5071670;28;20060;-76
2024/03/06 08:40:14;;;;;;;17.60;11.50;;;;;;;7.89;97.14;101539.34;5082726;28;20120;-75
2024/03/06 08:42:43;;;;;;;17.70;10.15;;;;;;;7.80;96.11;101537.41;5050122;28;20060;-76
2024/03/06 08:45:11;;;;;;;20.38;11.70;;;;;;;7.88;97.25;101543.16;5070608;28;20052;-75
2024/03/06 08:47:41;;;;;;;19.77;12.35;;;;;;;7.85;97.32;101546.47;5066951;28;20048;-75
2024/03/06 08:50:12;;;;;;;18.73;11.55;;;;;;;7.80;97.88;101540.97;5066072;28;20049;-75
2024/03/06 08:52:41;;;;;;;20.73;12.77;;;;;;;8.04;96.91;101543.97;5080129;28;20055;-75
2024/03/06 08:55:09;;;;;;;18.92;11.93;;;;;;;7.91;96.22;101548.09;5088560;28;20078;-75
2024/03/06 08:57:37;;;;;;;20.60;12.38;;;;;;;8.02;95.57;101543.41;5072246;28;20048;-75
2024/03/06 09:00:16;;;;;;;19.63;12.13;;;;;;;8.41;95.16;101551.88;5087673;28;20062;-75
2024/03/06 09:02:44;;;;;;;14.80;11.48;;;;;;;8.59;93.06;101551.28;5075804;28;20098;-76
2024/03/06 09:05:12;;;;;;;16.98;10.35;;;;;;;8.21;91.49;101552.72;5086946;28;20052;-75
2024/03/06 09:07:40;;;;;;;21.30;11.57;;;;;;;8.32;91.11;101562.63;5074467;28;20543;-75
2024/03/06 09:10:09;;;;;;;18.42;11.60;;;;;;;8.02;93.23;101564.56;5085068;28;20055;-74
2024/03/06 09:12:37;;;;;;;20.10;11.90;;;;;;;8.27;93.52;101570.84;5068511;28;20090;-75
2024/03/06 09:15:07;;;;;;;15.13;10.15;;;;;;;8.02;93.35;101568.94;5084347;28;20071;-75
2024/03/06 09:17:34;;;;;;;18.92;10.55;;;;;;;8.16;92.51;101580.16;5087933;28;20048;-72
2024/03/06 09:20:10;;;;;;;17.27;10.75;;;;;;;7.85;93.97;101575.81;5081462;28;20055;-76
2024/03/06 09:22:39;;;;;;;18.23;11.38;;;;;;;8.47;93.25;101581.78;5083589;28;20044;-75
2024/03/06 09:25:08;;;;;;;16.40;10.82;;;;;;;8.33;90.62;101579.91;5094065;28;20079;-75
2024/03/06 09:27:35;;;;;;;16.55;11.23;;;;;;;8.41;91.20;101571.94;5073761;28;20066;-76
2024/03/06 09:30:03;;;;;;;19.70;10.85;;;;;;;8.47;89.89;101575.50;5086661;28;20051;-77
2024/03/06 09:32:31;;;;;;;19.45;11.60;;;;;;;7.80;93.75;101576.63;5086196;28;20059;-75
2024/03/06 09:34:59;;;;;;;18.65;11.02;;;;;;;8.20;94.36;101570.28;5063187;28;20071;-76
2024/03/06 09:37:27;;;;;;;17.80;11.38;;;;;;;8.35;92.07;101572.22;5085658;28;20454;-76
2024/03/06 09:39:56;;;;;;;21.25;11.40;;;;;;;8.74;90.30;101567.69;5085653;28;20052;-75
2024/03/06 09:42:24;;;;;;;18.73;10.35;;;;;;;8.16;89.35;101574.69;5069561;28;20066;-76
2024/03/06 09:44:52;;;;;;;17.67;11.38;;;;;;;7.91;91.02;101574.72;5068600;28;20048;-76
2024/03/06 09:47:23;;;;;;;17.38;10.75;;;;;;;8.20;91.32;101572.19;5084669;28;20044;-77
2024/03/06 09:49:54;;;;;;;16.52;10.90;;;;;;;8.47;89.42;101580.97;5083494;28;20059;-75
2024/03/06 09:52:24;;;;;;;17.20;11.27;;;;;;;8.61;88.30;101571.84;5052868;28;20399;-74
2024/03/06 09:54:55;;;;;;;17.13;10.13;;;;;;;8.11;89.20;101576.63;5083208;28;20058;-76
2024/03/06 09:57:23;;;;;;;19.10;10.65;;;;;;;7.98;89.45;101578.00;5085830;28;20051;-76
2024/03/06 09:59:51;;;;;;;20.33;10.55;;;;;;;8.23;89.63;101577.97;5068840;28;20051;-77
2024/03/06 10:02:36;;;;;;;28.52;13.18;;;;;;;8.62;89.15;101573.53;5087177;28;20173;-76
2024/03/06 10:05:05;;;;;;;21.52;12.43;;;;;;;8.86;88.18;101577.28;5086321;28;20056;-76
2024/03/06 10:07:33;;;;;;;18.30;10.80;;;;;;;8.98;86.78;101586.00;5088841;28;20134;-77
2024/03/06 10:10:00;;;;;;;19.05;9.27;;;;;;;8.31;85.83;101582.09;5084938;28;20063;-76
2024/03/06 10:12:28;;;;;;;16.55;9.93;;;;;;;8.40;85.41;101585.94;5079179;28;20082;-76
2024/03/06 10:14:57;;;;;;;15.00;9.75;;;;;;;8.52;85.44;101592.78;5103964;28;20052;-78
2024/03/06 10:17:26;;;;;;;18.65;10.88;;;;;;;8.63;85.60;101591.63;5090974;28;20717;-78
2024/03/06 10:19:57;;;;;;;19.27;10.55;;;;;;;9.05;84.46;101586.53;5078701;28;20048;-77
2024/03/06 10:22:24;;;;;;;14.15;9.02;;;;;;;9.01;82.66;101588.19;5094439;28;20039;-77
2024/03/06 10:24:56;;;;;;;17.02;9.15;;;;;;;9.06;80.60;101581.88;5076253;28;20063;-78
2024/03/06 10:27:23;;;;;;;15.93;7.38;;;;;;;8.69;81.97;101598.75;5085901;28;20052;-77
2024/03/06 10:30:02;;;;;;;8.98;4.32;;;;;;;8.43;77.38;101588.94;5089214;28;20063;-77
2024/03/06 10:32:32;;;;;;;10.32;5.50;;;;;;;8.64;78.48;101598.78;5079955;28;20059;-76
2024/03/06 10:35:00;;;;;;;10.57;6.53;;;;;;;8.62;78.27;101597.41;5081650;28;20048;-74
2024/03/06 10:37:31;;;;;;;13.77;7.40;;;;;;;8.69;79.73;101595.19;5096935;28;20063;-75
2024/03/06 10:39:58;;;;;;;10.95;6.70;;;;;;;9.04;77.93;101593.13;5088545;28;20056;-74
2024/03/06 10:42:28;;;;;;;11.52;7.20;;;;;;;8.66;77.69;101595.75;5065122;28;20055;-75
2024/03/06 10:44:59;;;;;;;11.27;7.38;;;;;;;8.67;79.32;101592.72;5096086;28;20055;-76
2024/03/06 10:47:28;;;;;;;17.40;7.78;;;;;;;8.44;79.29;101600.75;5068777;28;20059;-75
2024/03/06 10:49:59;;;;;;;15.10;7.83;;;;;;;8.58;81.18;101599.06;5100610;28;20070;-77
2024/03/06 10:52:28;;;;;;;14.85;7.95;;;;;;;8.89;79.54;101586.88;5091661;28;20442;-76
2024/03/06 10:54:58;;;;;;;16.55;7.90;;;;;;;9.04;78.56;101586.81;5079160;28;20170;-77
2024/03/06 10:57:29;;;;;;;15.45;7.93;;;;;;;8.77;77.67;101586.38;5075466;28;20578;-77
2024/03/06 10:59:59;;;;;;;15.10;8.25;;;;;;;8.79;77.96;101590.47;5095861;28;20066;-77
2024/03/06 11:02:32;;;;;;;17.60;9.10;;;;;;;8.87;78.58;101587.16;5056865;28;20404;-77
2024/03/06 11:04:59;;;;;;;15.50;8.70;;;;;;;9.42;77.44;101594.28;5089793;28;20561;-76
2024/03/06 11:07:27;;;;;;;11.27;6.13;;;;;;;9.21;72.96;101597.44;5079550;28;20040;-76
2024/03/06 11:09:58;;;;;;;8.48;5.55;;;;;;;9.30;72.47;101604.81;5087843;28;20039;-77
2024/03/06 11:12:36;;;;;;;8.20;5.57;;;;;;;8.87;72.73;101600.88;5077409;28;20056;-75
2024/03/06 11:15:10;;;;;;;9.45;5.72;;;;;;;8.89;73.04;101606.13;5086701;28;20658;-77
2024/03/06 11:17:38;;;;;;;12.43;6.78;;;;;;;8.88;72.66;101597.03;5073407;28;20060;-76
2024/03/06 11:20:09;;;;;;;14.23;6.95;;;;;;;9.33;73.29;101608.94;5082819;28;20055;-77
2024/03/06 11:22:55;;;;;;;14.82;7.60;;;;;;;9.30;72.46;101607.56;5090616;28;20061;-76
2024/03/06 11:25:53;;;;;;;12.07;6.65;;;;;;;9.75;71.67;101604.53;5079730;28;20049;-76
2024/03/06 11:28:22;;;;;;;13.73;8.07;;;;;;;9.47;71.92;101624.50;5074544;28;20062;-75